Time;durP1;ratioP1;P1;durP2;ratioP2;P2;SDS_P1;SDS_P2;PMS_P1;PMS_P2;Temp;Humidity;BMP_temperature;BMP_pressure;BME280_temperature;BME280_humidity;BME280_pressure;Samples;Min_cycle;Max_cycle;Signal;HPM_P1;HPM_P2
2022/08/03 00:00:02;;;;;;;3.58;2.83;;;21.40;99.90;;;;;;5053490;28;20021;-87
2022/08/03 00:02:38;;;;;;;3.90;2.42;;;21.40;99.90;;;;;;5054316;28;20061;-87
2022/08/03 00:05:07;;;;;;;4.53;2.95;;;21.40;99.90;;;;;;5057244;28;20045;-86
2022/08/03 00:07:33;;;;;;;6.13;2.55;;;21.40;99.90;;;;;;5040175;28;20008;-86
2022/08/03 00:09:59;;;;;;;3.38;2.47;;;21.40;99.90;;;;;;5058140;28;20048;-86
2022/08/03 00:12:25;;;;;;;2.70;2.30;;;21.30;99.90;;;;;;5043288;28;20017;-89
2022/08/03 00:14:50;;;;;;;4.80;2.65;;;21.30;99.90;;;;;;5059972;28;20014;-89
2022/08/03 00:17:16;;;;;;;2.83;2.40;;;21.20;99.90;;;;;;5059938;28;20048;-88
2022/08/03 00:19:42;;;;;;;3.88;2.42;;;21.20;99.90;;;;;;5042743;28;20029;-88
2022/08/03 00:22:08;;;;;;;4.88;2.00;;;21.20;99.90;;;;;;5042216;28;20036;-87
2022/08/03 00:24:35;;;;;;;3.60;2.17;;;21.20;99.90;;;;;;5059940;28;20028;-88
2022/08/03 00:27:01;;;;;;;2.30;1.90;;;21.20;99.90;;;;;;5059607;28;20013;-87
2022/08/03 00:29:27;;;;;;;3.38;2.35;;;21.10;99.90;;;;;;5039414;28;20021;-86
2022/08/03 00:31:53;;;;;;;3.22;1.92;;;21.20;99.90;;;;;;5036933;28;20048;-85
2022/08/03 00:34:19;;;;;;;2.60;2.15;;;21.10;99.90;;;;;;5053513;28;20033;-85
2022/08/03 00:36:45;;;;;;;4.18;1.98;;;21.10;99.90;;;;;;5054981;28;20029;-85
2022/08/03 00:39:11;;;;;;;5.18;2.00;;;21.10;99.90;;;;;;5054877;28;20036;-85
2022/08/03 00:41:36;;;;;;;4.38;2.33;;;21.10;99.90;;;;;;5038525;28;20034;-87
2022/08/03 00:44:02;;;;;;;3.35;2.30;;;21.10;99.90;;;;;;5058446;28;20025;-86
2022/08/03 00:46:28;;;;;;;5.75;2.13;;;21.00;99.90;;;;;;5042071;28;20017;-87
2022/08/03 00:48:57;;;;;;;2.95;2.00;;;20.90;99.90;;;;;;5039941;28;20072;-87
2022/08/03 00:51:24;;;;;;;5.90;2.00;;;20.90;99.90;;;;;;5036872;28;20033;-87
2022/08/03 00:53:50;;;;;;;4.03;2.17;;;20.80;99.90;;;;;;5037382;28;20025;-86
2022/08/03 00:56:16;;;;;;;3.20;2.10;;;20.80;99.90;;;;;;5037673;28;20017;-87
2022/08/03 00:58:46;;;;;;;5.50;2.10;;;20.70;99.90;;;;;;5057722;28;20040;-87
2022/08/03 01:01:12;;;;;;;2.67;1.90;;;20.70;99.90;;;;;;5021438;28;20072;-87
2022/08/03 01:03:38;;;;;;;4.30;2.17;;;20.70;99.90;;;;;;5035506;28;20057;-86
2022/08/03 01:06:12;;;;;;;3.25;2.47;;;20.60;99.90;;;;;;5017310;28;20493;-88
2022/08/03 01:08:56;;;;;;;5.85;2.10;;;20.60;99.90;;;;;;5033820;28;20440;-86
2022/08/03 01:11:58;;;;;;;6.82;3.30;;;20.60;99.90;;;;;;5034556;28;20017;-86
2022/08/03 01:14:28;;;;;;;3.92;2.40;;;20.50;99.90;;;;;;5004578;28;20041;-88
2022/08/03 01:17:10;;;;;;;4.22;2.40;;;20.50;99.90;;;;;;5041393;28;20010;-86
2022/08/03 01:19:59;;;;;;;5.68;2.17;;;20.50;99.90;;;;;;5038600;28;20057;-87
2022/08/03 01:22:56;;;;;;;5.00;2.45;;;20.40;99.90;;;;;;5035282;28;20089;-87
2022/08/03 01:25:53;;;;;;;4.78;2.38;;;20.40;99.90;;;;;;5037298;28;20037;-87
2022/08/03 01:28:43;;;;;;;5.15;2.63;;;20.40;99.90;;;;;;5040993;28;20053;-88
2022/08/03 01:31:13;;;;;;;6.53;2.67;;;20.40;99.90;;;;;;5024230;28;20017;-88
2022/08/03 01:33:42;;;;;;;5.35;2.50;;;20.40;99.90;;;;;;5057630;28;20072;-87
2022/08/03 01:36:32;;;;;;;3.35;2.10;;;20.40;99.90;;;;;;5058063;28;20033;-88
2022/08/03 01:39:02;;;;;;;3.45;2.78;;;20.30;99.90;;;;;;5040103;28;20065;-87
2022/08/03 01:41:35;;;;;;;2.78;2.40;;;20.30;99.90;;;;;;5034681;28;20021;-85
2022/08/03 01:44:03;;;;;;;4.93;2.40;;;20.30;99.90;;;;;;5053971;28;20045;-88
2022/08/03 01:46:31;;;;;;;4.78;2.83;;;20.30;99.90;;;;;;5036180;28;20026;-88
2022/08/03 01:48:58;;;;;;;5.47;2.83;;;20.20;99.90;;;;;;5053081;28;20037;-89
2022/08/03 01:51:24;;;;;;;7.88;2.40;;;20.20;99.90;;;;;;5049754;28;20021;-88
2022/08/03 01:53:53;;;;;;;4.50;2.63;;;20.10;99.90;;;;;;5056099;28;20029;-87
2022/08/03 01:56:23;;;;;;;6.20;2.65;;;20.10;99.90;;;;;;5031213;28;20041;-86
2022/08/03 01:58:51;;;;;;;4.28;2.35;;;20.10;99.90;;;;;;5014385;28;20033;-86
2022/08/03 02:01:19;;;;;;;4.20;2.70;;;20.10;99.90;;;;;;5030926;28;20025;-87
2022/08/03 02:03:46;;;;;;;8.25;3.13;;;20.10;99.90;;;;;;5014367;28;20038;-87
2022/08/03 02:06:18;;;;;;;3.88;2.75;;;20.20;99.90;;;;;;5038616;28;20026;-88
2022/08/03 02:08:45;;;;;;;5.10;2.50;;;20.30;99.90;;;;;;5038325;28;20037;-87
2022/08/03 02:11:11;;;;;;;6.82;2.70;;;20.40;99.90;;;;;;5050396;28;20085;-88
2022/08/03 02:13:39;;;;;;;5.88;2.60;;;20.40;99.90;;;;;;5057132;28;20013;-85
2022/08/03 02:16:07;;;;;;;5.47;2.85;;;20.40;99.90;;;;;;5056183;28;20014;-86
2022/08/03 02:18:33;;;;;;;4.05;2.55;;;20.30;99.90;;;;;;5054926;28;20040;-86
2022/08/03 02:21:03;;;;;;;2.63;2.38;;;20.30;99.90;;;;;;5055761;28;20493;-88
2022/08/03 02:23:30;;;;;;;3.47;2.60;;;20.40;99.90;;;;;;5037955;28;20041;-87
2022/08/03 02:26:03;;;;;;;3.35;2.35;;;20.50;99.90;;;;;;5051439;28;20031;-85
2022/08/03 02:28:34;;;;;;;4.03;2.15;;;20.50;99.90;;;;;;5037744;28;20069;-87
2022/08/03 02:31:04;;;;;;;2.75;2.20;;;20.50;99.90;;;;;;5037549;28;20083;-86
2022/08/03 02:33:37;;;;;;;4.82;2.40;;;20.40;99.90;;;;;;5020309;28;20053;-85
2022/08/03 02:36:05;;;;;;;4.93;2.42;;;20.30;99.90;;;;;;5054730;28;20040;-86
2022/08/03 02:38:35;;;;;;;3.50;2.20;;;20.30;99.90;;;;;;5032153;28;20539;-86
2022/08/03 02:41:06;;;;;;;3.83;2.50;;;20.30;99.90;;;;;;5048475;28;20037;-89
2022/08/03 02:43:34;;;;;;;5.07;2.20;;;20.30;99.90;;;;;;5048489;28;20045;-86
2022/08/03 02:46:00;;;;;;;6.18;2.00;;;20.30;99.90;;;;;;5017919;28;20017;-85
2022/08/03 02:48:29;;;;;;;2.58;2.20;;;20.20;99.90;;;;;;5035425;28;20040;-85
2022/08/03 02:50:57;;;;;;;2.75;2.00;;;20.10;99.90;;;;;;5034795;28;20032;-86
2022/08/03 02:53:25;;;;;;;3.05;2.30;;;20.10;99.90;;;;;;5060553;28;20038;-87
2022/08/03 02:55:52;;;;;;;4.10;2.70;;;20.10;99.90;;;;;;5060637;28;20022;-87
2022/08/03 02:58:20;;;;;;;3.25;2.10;;;20.00;99.90;;;;;;5057326;28;20045;-87
2022/08/03 03:00:46;;;;;;;4.40;2.05;;;20.00;99.90;;;;;;5039563;28;20017;-87
2022/08/03 03:03:13;;;;;;;4.55;2.53;;;19.90;99.90;;;;;;5038634;28;20061;-86
2022/08/03 03:05:41;;;;;;;3.97;2.53;;;19.90;99.90;;;;;;5044203;28;20013;-88
2022/08/03 03:08:10;;;;;;;5.15;2.13;;;19.90;99.90;;;;;;5060837;28;20047;-88
2022/08/03 03:10:37;;;;;;;3.15;2.45;;;19.80;99.90;;;;;;5060868;28;20028;-86
2022/08/03 03:13:03;;;;;;;3.78;2.38;;;19.80;99.90;;;;;;5041055;28;20041;-88
2022/08/03 03:15:30;;;;;;;4.68;2.05;;;19.80;99.90;;;;;;5023680;28;20024;-88
2022/08/03 03:17:58;;;;;;;5.47;2.40;;;19.70;99.90;;;;;;5059197;28;20040;-86
2022/08/03 03:20:24;;;;;;;2.97;2.50;;;19.70;99.90;;;;;;5016253;28;20041;-88
2022/08/03 03:22:51;;;;;;;4.93;2.40;;;19.60;99.90;;;;;;5050829;28;20049;-87
2022/08/03 03:25:18;;;;;;;7.60;2.65;;;19.50;99.90;;;;;;5033459;28;20021;-85
2022/08/03 03:27:44;;;;;;;4.47;2.67;;;19.50;99.90;;;;;;5051283;28;20030;-87
2022/08/03 03:30:11;;;;;;;5.75;2.35;;;19.40;99.90;;;;;;5035244;28;20069;-87
2022/08/03 03:32:38;;;;;;;3.10;2.50;;;19.30;99.90;;;;;;5043081;28;20041;-89
2022/08/03 03:35:05;;;;;;;3.83;2.67;;;19.30;99.90;;;;;;5055316;28;20485;-88
2022/08/03 03:37:31;;;;;;;5.15;2.60;;;19.40;99.90;;;;;;5034781;28;20033;-85
2022/08/03 03:39:57;;;;;;;3.55;2.40;;;19.50;99.90;;;;;;5031811;28;20033;-84
2022/08/03 03:42:24;;;;;;;2.90;2.25;;;19.60;99.90;;;;;;5035434;28;20064;-85
2022/08/03 03:44:50;;;;;;;10.75;3.05;;;19.50;99.90;;;;;;5055282;28;20036;-85
2022/08/03 03:47:17;;;;;;;6.50;2.60;;;19.50;99.90;;;;;;5042434;28;20041;-86
2022/08/03 03:49:43;;;;;;;2.92;2.33;;;19.40;99.90;;;;;;5042411;28;20039;-86
2022/08/03 03:52:09;;;;;;;3.03;2.53;;;19.40;99.90;;;;;;5024093;28;20025;-86
2022/08/03 03:54:43;;;;;;;5.05;2.30;;;19.50;99.90;;;;;;5024076;28;20281;-88
2022/08/03 03:57:10;;;;;;;3.28;2.97;;;19.40;99.90;;;;;;5025273;28;20113;-89
2022/08/03 03:59:40;;;;;;;4.55;2.47;;;19.40;99.90;;;;;;5042743;28;20014;-86
2022/08/03 04:02:07;;;;;;;5.30;3.00;;;19.40;99.90;;;;;;5059968;28;20010;-88
2022/08/03 04:12:59;;;;;;;7.47;2.90;;;19.50;99.90;;;;;;5048653;28;20092;-86
2022/08/03 04:15:30;;;;;;;4.20;3.03;;;19.60;99.90;;;;;;5017663;28;20040;-88
2022/08/03 04:17:57;;;;;;;4.65;2.83;;;19.60;99.90;;;;;;5035452;28;20055;-88
2022/08/03 04:20:26;;;;;;;4.22;2.80;;;19.60;99.90;;;;;;5055801;28;20029;-87
2022/08/03 04:22:54;;;;;;;3.35;2.63;;;19.60;99.90;;;;;;5039396;28;20021;-87
2022/08/03 04:25:24;;;;;;;4.22;2.85;;;19.60;99.90;;;;;;5040632;28;20025;-88
2022/08/03 04:27:51;;;;;;;4.00;2.92;;;19.70;99.90;;;;;;5051905;28;20055;-87
2022/08/03 04:30:18;;;;;;;5.70;3.20;;;19.80;99.90;;;;;;5051146;28;20053;-86
2022/08/03 04:32:50;;;;;;;6.53;3.03;;;19.90;99.90;;;;;;5052138;28;20018;-86
2022/08/03 04:35:17;;;;;;;6.63;2.88;;;19.90;99.90;;;;;;5037268;28;20018;-87
2022/08/03 04:37:53;;;;;;;3.40;2.95;;;19.90;99.90;;;;;;5042920;28;20077;-88
2022/08/03 04:40:25;;;;;;;5.57;2.92;;;19.90;99.90;;;;;;5059653;28;20035;-88
2022/08/03 04:42:54;;;;;;;7.30;3.20;;;19.90;99.90;;;;;;5042472;28;20036;-87
2022/08/03 04:45:21;;;;;;;4.32;3.50;;;20.00;99.90;;;;;;5055249;28;20030;-85
2022/08/03 04:47:47;;;;;;;5.93;3.35;;;20.10;99.90;;;;;;5062500;22;20110;-76
2022/08/03 04:50:14;;;;;;;3.83;2.92;;;20.10;99.90;;;;;;5065429;28;20398;-77
2022/08/03 04:52:40;;;;;;;7.40;3.25;;;20.10;99.90;;;;;;5061805;28;20468;-77
2022/08/03 04:55:06;;;;;;;6.20;3.00;;;20.30;99.90;;;;;;5045600;28;20021;-77
2022/08/03 04:57:32;;;;;;;5.70;2.70;;;20.40;99.90;;;;;;5064538;28;20072;-77
2022/08/03 04:59:58;;;;;;;6.03;2.80;;;20.50;99.90;;;;;;5060162;28;20017;-77
2022/08/03 05:02:23;;;;;;;7.50;3.63;;;20.60;99.90;;;;;;5059987;28;20088;-77
2022/08/03 05:04:49;;;;;;;4.13;2.95;;;20.80;99.90;;;;;;5056582;28;20025;-77
2022/08/03 05:07:16;;;;;;;6.22;4.03;;;21.10;99.90;;;;;;5056849;28;20060;-79
2022/08/03 05:09:43;;;;;;;6.03;2.83;;;21.40;99.90;;;;;;5058109;28;20018;-87
2022/08/03 05:12:09;;;;;;;8.27;2.60;;;21.50;99.90;;;;;;5061703;28;20029;-78
2022/08/03 05:14:37;;;;;;;7.70;2.80;;;21.80;99.90;;;;;;5062705;28;20020;-77
2022/08/03 05:17:04;;;;;;;6.97;2.90;;;21.90;99.90;;;;;;5054490;28;20049;-78
2022/08/03 05:19:30;;;;;;;5.00;3.08;;;21.90;99.90;;;;;;5061558;28;20507;-76
2022/08/03 05:21:56;;;;;;;4.65;2.97;;;21.90;99.90;;;;;;5062744;28;20036;-77
2022/08/03 05:24:22;;;;;;;7.18;2.92;;;21.90;99.90;;;;;;5059099;28;20030;-77
2022/08/03 05:26:48;;;;;;;6.38;3.17;;;22.30;99.90;;;;;;5053736;28;20020;-79
2022/08/03 05:29:14;;;;;;;3.15;2.50;;;22.70;99.90;;;;;;5052734;28;20453;-78
2022/08/03 05:31:40;;;;;;;4.65;3.00;;;22.80;99.90;;;;;;5052046;28;20028;-78
2022/08/03 05:34:05;;;;;;;15.13;3.15;;;22.90;99.90;;;;;;5050357;28;20032;-78
2022/08/03 05:36:31;;;;;;;4.25;2.90;;;23.10;99.90;;;;;;5042332;28;20033;-80
2022/08/03 05:38:57;;;;;;;5.90;3.53;;;23.10;99.90;;;;;;5053259;28;20032;-77
2022/08/03 05:41:23;;;;;;;7.72;3.17;;;23.00;99.90;;;;;;5061728;28;20067;-76
2022/08/03 05:43:50;;;;;;;5.32;2.75;;;23.00;99.90;;;;;;5050582;28;20132;-78
2022/08/03 05:46:16;;;;;;;6.07;3.00;;;23.00;99.90;;;;;;5053130;28;20029;-77
2022/08/03 05:48:42;;;;;;;7.60;3.05;;;22.90;99.90;;;;;;5038302;28;20043;-78
2022/08/03 05:51:09;;;;;;;7.63;3.28;;;22.90;99.90;;;;;;5039943;28;20044;-77
2022/08/03 05:53:36;;;;;;;5.30;2.78;;;23.00;99.90;;;;;;5039150;28;20032;-78
2022/08/03 05:56:02;;;;;;;8.27;3.38;;;23.00;99.90;;;;;;5051963;28;20029;-78
2022/08/03 05:58:28;;;;;;;5.03;3.40;;;23.10;99.90;;;;;;5034418;28;20017;-77
2022/08/03 06:00:54;;;;;;;8.18;3.03;;;23.10;99.90;;;;;;5032378;28;20107;-77
2022/08/03 06:03:20;;;;;;;6.43;3.22;;;23.20;99.90;;;;;;5051704;28;20021;-76
2022/08/03 06:05:46;;;;;;;5.22;2.92;;;23.30;99.90;;;;;;5049511;28;20021;-78
2022/08/03 06:08:12;;;;;;;6.97;2.97;;;23.40;99.90;;;;;;5048993;28;20043;-78
2022/08/03 06:10:38;;;;;;;4.35;2.75;;;23.50;99.90;;;;;;5047312;28;20053;-79
2022/08/03 06:13:04;;;;;;;6.53;2.50;;;23.60;99.90;;;;;;5050009;28;20021;-79
2022/08/03 06:15:32;;;;;;;3.45;2.85;;;23.60;99.90;;;;;;5033397;28;20079;-79
2022/08/03 06:17:58;;;;;;;8.18;2.55;;;23.70;99.90;;;;;;5031236;28;20025;-77
2022/08/03 06:20:24;;;;;;;11.32;2.80;;;23.60;99.90;;;;;;5056339;28;20021;-77
2022/08/03 06:22:50;;;;;;;6.10;2.65;;;23.70;99.90;;;;;;5059987;28;20033;-78
2022/08/03 06:25:16;;;;;;;5.00;2.78;;;23.70;99.90;;;;;;5060262;28;20075;-82
2022/08/03 06:27:42;;;;;;;8.45;2.88;;;23.80;99.90;;;;;;5060934;28;20035;-81
2022/08/03 06:30:10;;;;;;;8.00;3.10;;;23.90;99.90;;;;;;5080199;28;20033;-83
2022/08/03 06:32:37;;;;;;;4.57;2.85;;;24.10;99.90;;;;;;5080347;28;20048;-81
2022/08/03 06:35:05;;;;;;;3.17;2.28;;;24.20;99.90;;;;;;5078242;28;20036;-82
2022/08/03 06:37:43;;;;;;;2.92;2.28;;;24.30;99.90;;;;;;5067812;28;20345;-81
2022/08/03 06:44:04;;;;;;;5.07;2.85;;;24.50;99.90;;;;;;5062950;28;20523;-82
2022/08/03 06:46:42;;;;;;;4.05;2.60;;;24.30;99.90;;;;;;5065679;28;20017;-82
2022/08/03 06:49:14;;;;;;;10.55;2.67;;;24.30;99.90;;;;;;5059426;28;20059;-83
2022/08/03 06:51:39;;;;;;;2.30;2.08;;;24.40;99.90;;;;;;5062845;28;20077;-81
2022/08/03 06:54:06;;;;;;;5.40;2.15;;;24.40;99.90;;;;;;5053707;28;20033;-82
2022/08/03 06:56:55;;;;;;;3.78;2.90;;;24.50;99.90;;;;;;5051561;28;20047;-90
2022/08/03 07:00:14;;;;;;;6.22;2.78;;;24.50;99.90;;;;;;5042443;28;20014;-86
2022/08/03 07:02:41;;;;;;;3.63;2.58;;;24.60;99.90;;;;;;5034381;28;20029;-83
2022/08/03 07:05:51;;;;;;;12.82;2.80;;;24.60;99.90;;;;;;5052388;28;20013;-85
2022/08/03 07:08:24;;;;;;;7.25;2.65;;;24.60;99.90;;;;;;5046061;28;20049;-83
2022/08/03 07:14:30;;;;;;;5.85;2.70;;;24.60;99.90;;;;;;5028907;28;20053;-84
2022/08/03 07:16:56;;;;;;;4.95;3.08;;;24.70;99.90;;;;;;5028806;28;20501;-85
2022/08/03 07:19:26;;;;;;;7.60;3.15;;;24.80;99.90;;;;;;5011676;28;20080;-84
2022/08/03 07:21:55;;;;;;;7.63;2.75;;;24.80;99.90;;;;;;5028585;28;20033;-84
2022/08/03 07:24:24;;;;;;;11.25;2.97;;;24.90;99.90;;;;;;5027490;28;20079;-84
2022/08/03 07:26:57;;;;;;;9.00;2.80;;;25.00;99.90;;;;;;5029737;28;20078;-86
2022/08/03 07:29:38;;;;;;;8.00;3.13;;;25.20;99.90;;;;;;5032511;28;20026;-84
2022/08/03 07:32:07;;;;;;;4.53;2.95;;;25.30;99.90;;;;;;5050810;28;20037;-82
2022/08/03 07:34:37;;;;;;;5.38;3.30;;;25.20;99.90;;;;;;5052452;28;20030;-85
2022/08/03 07:37:03;;;;;;;12.32;3.20;;;25.20;99.90;;;;;;5051824;28;20102;-84
2022/08/03 07:39:33;;;;;;;8.82;3.55;;;25.20;99.90;;;;;;5049909;28;20029;-84
2022/08/03 07:42:09;;;;;;;7.30;3.08;;;25.20;99.90;;;;;;5032050;28;20084;-85
2022/08/03 07:44:38;;;;;;;9.73;4.55;;;25.20;99.90;;;;;;5049324;28;20052;-86
2022/08/03 07:47:07;;;;;;;9.18;3.20;;;25.30;99.90;;;;;;5015914;28;20033;-85
2022/08/03 07:49:40;;;;;;;5.43;2.90;;;25.50;99.90;;;;;;5050024;28;20103;-86
2022/08/03 07:54:57;;;;;;;7.70;3.10;;;25.60;99.90;;;;;;5030362;28;20030;-85
2022/08/03 07:57:26;;;;;;;5.97;3.25;;;25.80;99.90;;;;;;5024463;28;20030;-86
2022/08/03 07:59:57;;;;;;;15.02;3.40;;;25.80;99.90;;;;;;5023417;28;20021;-86
2022/08/03 08:02:23;;;;;;;6.88;3.90;;;25.80;99.90;;;;;;5043036;28;20024;-87
2022/08/03 08:04:51;;;;;;;6.30;3.10;;;25.90;99.90;;;;;;5028422;28;20029;-84
2022/08/03 08:07:20;;;;;;;8.75;3.10;;;26.10;99.90;;;;;;5026753;28;20038;-85
2022/08/03 08:09:50;;;;;;;13.73;3.65;;;26.10;99.90;;;;;;5007209;28;20038;-84
2022/08/03 08:12:23;;;;;;;6.00;3.53;;;26.10;99.90;;;;;;5024580;28;20086;-84
2022/08/03 08:14:50;;;;;;;12.48;3.70;;;26.30;99.90;;;;;;5042589;28;20037;-85
2022/08/03 08:17:20;;;;;;;5.72;3.15;;;26.60;99.60;;;;;;5024105;28;20052;-86
2022/08/03 08:19:46;;;;;;;4.88;3.00;;;26.70;99.60;;;;;;4997131;28;20032;-83
2022/08/03 08:22:11;;;;;;;10.77;3.30;;;26.90;99.30;;;;;;5050376;28;20022;-81
2022/08/03 08:24:38;;;;;;;12.98;3.58;;;26.90;98.90;;;;;;5052363;28;20436;-84
2022/08/03 08:27:03;;;;;;;9.43;3.63;;;26.90;99.10;;;;;;5053630;28;20021;-83
2022/08/03 08:29:29;;;;;;;5.65;2.83;;;26.90;98.90;;;;;;5053716;28;20029;-82
2022/08/03 08:31:55;;;;;;;8.65;2.85;;;27.00;98.40;;;;;;5053060;28;20045;-83
2022/08/03 08:34:21;;;;;;;7.05;2.83;;;27.10;97.90;;;;;;5052181;28;20034;-82
2022/08/03 08:36:47;;;;;;;4.63;2.80;;;27.20;97.30;;;;;;5033533;28;20081;-83
2022/08/03 08:39:12;;;;;;;10.13;2.90;;;27.30;97.00;;;;;;5047855;28;20485;-83
2022/08/03 08:41:38;;;;;;;7.53;3.78;;;27.30;97.00;;;;;;5046397;28;20034;-84
2022/08/03 08:44:06;;;;;;;3.70;3.10;;;27.40;96.80;;;;;;5044346;28;20060;-84
2022/08/03 08:46:33;;;;;;;5.40;2.83;;;27.50;96.20;;;;;;5026767;28;20022;-84
2022/08/03 08:48:59;;;;;;;11.43;2.70;;;27.60;95.60;;;;;;5041252;28;20125;-83
2022/08/03 08:51:37;;;;;;;3.28;2.10;;;27.70;92.80;;;;;;5040198;28;20334;-83
2022/08/03 08:54:06;;;;;;;3.28;2.10;;;27.70;92.50;;;;;;5039506;28;20053;-82
2022/08/03 08:56:33;;;;;;;5.22;2.50;;;27.70;92.50;;;;;;5022216;28;20100;-83
2022/08/03 08:59:00;;;;;;;6.10;2.70;;;27.80;91.50;;;;;;5039965;28;20366;-83
2022/08/03 09:01:26;;;;;;;7.55;2.67;;;27.70;91.30;;;;;;5021578;28;20029;-82
2022/08/03 09:03:53;;;;;;;4.38;2.60;;;27.70;91.00;;;;;;5023258;28;20045;-83
2022/08/03 09:06:23;;;;;;;3.10;2.40;;;27.80;90.50;;;;;;5022643;28;20032;-83
2022/08/03 09:08:49;;;;;;;6.65;2.53;;;27.80;90.60;;;;;;5045643;28;20029;-82
2022/08/03 09:11:15;;;;;;;4.13;2.50;;;27.90;90.80;;;;;;5044053;28;20048;-83
2022/08/03 09:13:41;;;;;;;3.45;2.30;;;27.90;90.90;;;;;;5039112;28;20393;-82
2022/08/03 09:16:15;;;;;;;4.30;2.67;;;27.90;90.80;;;;;;5021791;28;20029;-84
2022/08/03 09:18:49;;;;;;;3.97;2.40;;;28.00;90.90;;;;;;5040729;28;20037;-84
2022/08/03 09:21:35;;;;;;;4.82;2.75;;;28.10;90.90;;;;;;5043732;28;20509;-83
2022/08/03 09:24:02;;;;;;;5.25;2.50;;;28.10;90.70;;;;;;5055732;28;20304;-82
2022/08/03 09:26:30;;;;;;;2.60;2.35;;;28.10;90.90;;;;;;5037988;28;20029;-82
2022/08/03 09:29:02;;;;;;;9.65;2.85;;;28.20;90.50;;;;;;5054690;28;20056;-82
2022/08/03 09:31:39;;;;;;;4.03;2.78;;;28.30;90.70;;;;;;5052648;28;20037;-82
2022/08/03 09:34:07;;;;;;;6.28;2.80;;;28.30;90.70;;;;;;5046810;28;20106;-82
2022/08/03 09:36:47;;;;;;;4.18;2.97;;;28.40;90.80;;;;;;5027232;28;20021;-82
2022/08/03 09:39:15;;;;;;;6.38;2.78;;;28.50;90.30;;;;;;5040908;28;20030;-84
2022/08/03 09:41:44;;;;;;;5.65;2.60;;;28.90;90.30;;;;;;5042721;28;20029;-83
2022/08/03 09:44:11;;;;;;;5.90;2.58;;;29.20;90.10;;;;;;5043218;28;20076;-83
2022/08/03 09:46:51;;;;;;;4.57;2.30;;;29.60;88.40;;;;;;5040217;28;20017;-83
2022/08/03 09:49:17;;;;;;;3.03;2.20;;;30.30;87.50;;;;;;5024167;28;20029;-82
2022/08/03 09:51:43;;;;;;;5.60;2.28;;;31.10;82.90;;;;;;5040757;28;20083;-84
2022/08/03 09:54:09;;;;;;;2.88;2.25;;;31.70;81.20;;;;;;5041072;28;20056;-81
2022/08/03 09:56:46;;;;;;;5.72;1.88;;;32.70;78.40;;;;;;5041140;28;20040;-84
2022/08/03 09:59:21;;;;;;;5.30;2.03;;;33.20;76.00;;;;;;5039996;28;20055;-84
2022/08/03 10:01:47;;;;;;;3.03;2.20;;;33.70;75.10;;;;;;5039687;28;20025;-82
2022/08/03 10:04:15;;;;;;;2.22;1.92;;;35.00;71.50;;;;;;5022623;28;20156;-83
2022/08/03 10:07:00;;;;;;;5.18;1.95;;;35.50;67.70;;;;;;5047132;28;20633;-82
2022/08/03 10:09:25;;;;;;;;;;;35.60;66.50;;;;;;5046329;28;20093;-82
2022/08/03 10:11:51;;;;;;;3.65;2.00;;;37.00;64.00;;;;;;5028512;28;19905;-84
2022/08/03 10:14:18;;;;;;;2.55;1.88;;;37.80;61.40;;;;;;5030235;28;20040;-85
2022/08/03 10:16:45;;;;;;;2.60;2.03;;;38.60;59.20;;;;;;5046584;28;20022;-84
2022/08/03 10:19:13;;;;;;;4.05;1.92;;;38.90;57.00;;;;;;5042414;28;20033;-83
2022/08/03 10:21:45;;;;;;;7.03;2.15;;;40.20;55.60;;;;;;5040798;28;20025;-83
2022/08/03 10:24:15;;;;;;;4.18;2.08;;;41.20;53.50;;;;;;5040431;28;20061;-83
2022/08/03 10:26:43;;;;;;;3.80;2.10;;;41.40;53.20;;;;;;5039867;28;20022;-83
2022/08/03 10:29:13;;;;;;;4.13;2.50;;;42.10;51.00;;;;;;5023076;28;20024;-82
2022/08/03 10:31:43;;;;;;;1.63;1.45;;;42.80;50.00;;;;;;5041989;28;20052;-84
2022/08/03 10:34:33;;;;;;;2.58;1.88;;;43.50;47.30;;;;;;5039839;28;20033;-84
2022/08/03 10:37:00;;;;;;;1.45;1.13;;;43.90;46.10;;;;;;5039863;28;20026;-84
2022/08/03 10:39:28;;;;;;;1.95;1.60;;;44.50;44.20;;;;;;5040795;28;20021;-84
2022/08/03 10:41:57;;;;;;;1.48;1.35;;;44.50;43.60;;;;;;5040494;28;20028;-84
2022/08/03 10:44:28;;;;;;;1.70;1.60;;;44.90;42.90;;;;;;5038818;28;20124;-84
2022/08/03 10:49:24;;;;;;;2.08;1.88;;;45.80;42.30;;;;;;5039902;28;20045;-83
2022/08/03 10:51:50;;;;;;;1.45;1.35;;;46.20;41.20;;;;;;5030580;28;20505;-83
2022/08/03 10:57:52;;;;;;;1.77;1.60;;;46.40;39.80;;;;;;5038008;28;20207;-84
2022/08/03 11:00:24;;;;;;;1.50;1.20;;;47.60;39.50;;;;;;5018845;28;20141;-83
2022/08/03 11:03:10;;;;;;;1.48;1.33;;;47.50;39.80;;;;;;5037976;28;20069;-84
2022/08/03 11:05:39;;;;;;;2.53;1.45;;;47.10;40.20;;;;;;5020747;28;20041;-83
2022/08/03 11:08:26;;;;;;;3.08;1.38;;;47.50;39.70;;;;;;5023402;28;20118;-83
2022/08/03 11:11:01;;;;;;;1.50;1.23;;;46.90;39.90;;;;;;5024017;28;20044;-83
2022/08/03 11:13:30;;;;;;;1.60;1.50;;;47.80;39.20;;;;;;5040886;28;20033;-83
2022/08/03 11:15:58;;;;;;;6.43;2.20;;;48.70;38.70;;;;;;5040913;28;20416;-83
2022/08/03 11:18:24;;;;;;;2.38;1.38;;;48.00;38.60;;;;;;5030750;28;20081;-83
2022/08/03 11:20:54;;;;;;;2.70;1.70;;;48.00;39.00;;;;;;5015901;28;20496;-82
2022/08/03 11:23:42;;;;;;;6.65;1.67;;;47.20;39.20;;;;;;5042110;28;20053;-83
2022/08/03 11:26:14;;;;;;;2.70;1.60;;;46.30;40.40;;;;;;5024362;28;20029;-82
2022/08/03 11:28:45;;;;;;;2.33;1.15;;;47.10;39.40;;;;;;5040871;28;20500;-82
2022/08/03 11:31:23;;;;;;;2.00;1.70;;;48.00;39.20;;;;;;5041876;28;20098;-83
2022/08/03 11:34:06;;;;;;;2.88;1.58;;;48.70;38.80;;;;;;5022439;28;20105;-82
2022/08/03 11:37:19;;;;;;;1.55;1.27;;;49.50;38.70;;;;;;5045303;28;20025;-82
2022/08/03 11:39:46;;;;;;;2.05;1.77;;;48.80;38.40;;;;;;4943773;29;20035;-83
2022/08/03 11:42:24;;;;;;;1.95;1.73;;;47.40;39.00;;;;;;4961704;28;20027;-83
2022/08/03 11:44:51;;;;;;;2.88;1.70;;;46.30;39.60;;;;;;5009292;28;20041;-83
2022/08/03 11:47:18;;;;;;;3.85;1.60;;;46.50;39.30;;;;;;5041083;28;20021;-82
2022/08/03 11:49:49;;;;;;;4.03;1.80;;;47.40;38.80;;;;;;5052858;28;20010;-82
2022/08/03 11:52:18;;;;;;;3.00;2.40;;;47.90;38.90;;;;;;5057369;28;20509;-81
2022/08/03 11:54:44;;;;;;;2.00;1.80;;;48.10;38.50;;;;;;5056045;28;20049;-82
2022/08/03 11:57:10;;;;;;;2.05;1.90;;;47.90;38.30;;;;;;5038338;28;20025;-83
2022/08/03 11:59:37;;;;;;;1.88;1.50;;;47.80;38.30;;;;;;5055220;28;20023;-80
2022/08/03 12:02:11;;;;;;;3.30;1.40;;;47.50;38.30;;;;;;5055964;28;20025;-81
2022/08/03 12:04:57;;;;;;;1.98;1.60;;;48.00;37.70;;;;;;5056813;28;20120;-81
2022/08/03 12:07:23;;;;;;;2.53;1.65;;;48.10;38.10;;;;;;5046217;28;20101;-81
2022/08/03 12:10:11;;;;;;;2.67;1.73;;;48.50;37.60;;;;;;5041400;28;20017;-82
2022/08/03 12:12:38;;;;;;;1.70;1.50;;;48.10;37.00;;;;;;5040449;28;20038;-82
2022/08/03 12:15:05;;;;;;;2.58;1.70;;;47.70;37.10;;;;;;5040891;28;20393;-83
2022/08/03 12:17:37;;;;;;;1.58;1.48;;;47.50;37.30;;;;;;5039409;28;20025;-82
2022/08/03 12:20:05;;;;;;;3.22;1.45;;;47.40;37.10;;;;;;5039881;28;20540;-84
2022/08/03 12:22:37;;;;;;;3.30;1.45;;;46.50;37.30;;;;;;5039790;28;20363;-84
2022/08/03 12:25:06;;;;;;;4.00;1.63;;;46.50;37.60;;;;;;5040068;28;20022;-82
2022/08/03 12:27:33;;;;;;;8.40;1.45;;;46.50;38.10;;;;;;5040233;28;20034;-84
2022/08/03 12:30:00;;;;;;;1.50;1.40;;;46.30;37.80;;;;;;5030708;28;20048;-83
2022/08/03 12:32:30;;;;;;;1.85;1.48;;;46.60;37.70;;;;;;5028851;28;20037;-82
2022/08/03 12:34:59;;;;;;;3.67;1.23;;;47.00;37.60;;;;;;5022583;28;20036;-83
2022/08/03 12:37:25;;;;;;;3.50;1.60;;;46.90;37.60;;;;;;5040443;28;20029;-82
2022/08/03 12:39:54;;;;;;;1.67;1.42;;;47.50;37.30;;;;;;5022293;28;20025;-84
2022/08/03 12:42:20;;;;;;;3.45;1.65;;;48.70;36.30;;;;;;5039910;28;20104;-83
2022/08/03 12:44:47;;;;;;;2.67;1.50;;;48.90;36.20;;;;;;5022311;28;20025;-82
2022/08/03 12:47:14;;;;;;;2.22;1.40;;;49.10;35.90;;;;;;5022122;28;20048;-83
2022/08/03 12:49:48;;;;;;;4.38;1.58;;;48.90;35.70;;;;;;5041529;28;20044;-83
2022/08/03 12:52:15;;;;;;;2.00;1.65;;;49.80;35.90;;;;;;5043070;28;20521;-80
2022/08/03 12:54:42;;;;;;;2.55;2.05;;;50.00;35.40;;;;;;5042299;28;20077;-82
2022/08/03 12:57:10;;;;;;;2.00;1.60;;;50.50;35.20;;;;;;5049224;28;20029;-82
2022/08/03 12:59:53;;;;;;;3.05;1.50;;;50.30;35.40;;;;;;5051999;28;20062;-83
2022/08/03 13:02:21;;;;;;;3.25;1.52;;;50.10;35.30;;;;;;5052824;28;20029;-81
2022/08/03 13:04:47;;;;;;;4.65;1.63;;;49.80;35.40;;;;;;5035058;28;20029;-81
2022/08/03 13:07:15;;;;;;;5.18;1.70;;;49.50;35.60;;;;;;5035127;28;20033;-84
2022/08/03 13:09:49;;;;;;;2.80;1.25;;;48.60;35.40;;;;;;5045015;28;20041;-84
2022/08/03 13:12:20;;;;;;;4.28;1.70;;;47.90;36.00;;;;;;5047032;28;20036;-83
2022/08/03 13:14:48;;;;;;;2.92;1.60;;;48.10;36.00;;;;;;5045271;28;20482;-83
2022/08/03 13:17:15;;;;;;;2.80;1.70;;;47.40;35.70;;;;;;5041864;28;20057;-83
2022/08/03 13:19:42;;;;;;;1.52;1.40;;;46.90;36.40;;;;;;5041627;28;20025;-82
2022/08/03 13:22:18;;;;;;;2.80;1.50;;;46.90;36.20;;;;;;5040217;28;20170;-84